createdAt,value
2023-02-17T00:01:49.914Z,2.77
2023-02-17T00:04:19.931Z,2.77
2023-02-17T00:06:50.103Z,2.78
2023-02-17T00:09:20.607Z,2.79
2023-02-17T00:11:55.383Z,2.81
2023-02-17T00:14:22.459Z,2.81
2023-02-17T00:16:49.607Z,2.81
2023-02-17T00:19:26.259Z,2.84
2023-02-17T00:22:05.113Z,2.86
2023-02-17T00:24:39.020Z,2.88
2023-02-17T00:27:26.686Z,2.90
2023-02-17T00:29:54.247Z,2.91
2023-02-17T00:32:41.656Z,2.91
2023-02-17T00:35:24.556Z,2.91
2023-02-17T00:37:51.808Z,2.91
2023-02-17T00:40:22.113Z,2.92
2023-02-17T00:42:55.141Z,2.93
2023-02-17T00:45:42.782Z,2.95
2023-02-17T00:48:30.425Z,2.94
2023-02-17T00:51:00.621Z,2.95
2023-02-17T00:53:31.253Z,2.96
2023-02-17T00:56:09.686Z,2.96
2023-02-17T00:58:56.979Z,2.97
2023-02-17T01:01:44.474Z,2.98
2023-02-17T01:04:22.996Z,3.00
2023-02-17T01:06:52.830Z,3.01
2023-02-17T01:09:29.220Z,3.02
2023-02-17T01:12:12.343Z,3.03
2023-02-17T01:14:42.653Z,3.05
2023-02-17T01:17:09.626Z,3.07
2023-02-17T01:19:48.214Z,3.08
2023-02-17T01:22:16.596Z,3.10
2023-02-17T01:24:55.348Z,3.12
2023-02-17T01:27:31.270Z,3.13
2023-02-17T01:29:58.985Z,3.16
2023-02-17T01:32:33.761Z,3.17
2023-02-17T01:35:21.107Z,3.18
2023-02-17T01:37:48.034Z,3.19
2023-02-17T01:40:18.510Z,3.21
2023-02-17T01:42:48.226Z,3.21
2023-02-17T01:45:38.465Z,3.23
2023-02-17T01:48:11.768Z,3.24
2023-02-17T01:50:41.367Z,3.25
2023-02-17T01:53:11.181Z,3.27
2023-02-17T01:55:40.786Z,3.28
2023-02-17T01:58:13.150Z,3.28
2023-02-17T02:00:43.165Z,3.28
2023-02-17T02:03:14.114Z,3.29
2023-02-17T02:05:43.695Z,3.30
2023-02-17T02:08:15.279Z,3.31
2023-02-17T02:10:42.518Z,3.31
2023-02-17T02:13:11.041Z,3.32
2023-02-17T02:15:44.787Z,3.32
2023-02-17T02:18:29.977Z,3.32
2023-02-17T02:21:27.246Z,3.33
2023-02-17T02:24:08.726Z,3.35
2023-02-17T02:27:18.972Z,3.36
2023-02-17T02:30:22.605Z,3.37
2023-02-17T02:33:01.416Z,3.36
2023-02-17T02:35:35.633Z,3.35
2023-02-17T02:38:07.699Z,3.37
2023-02-17T02:45:11.756Z,3.38
2023-02-17T02:47:53.057Z,3.37
2023-02-17T02:50:33.077Z,3.39
2023-02-17T02:53:10.059Z,3.41
2023-02-17T02:55:54.236Z,3.42
2023-02-17T02:58:30.695Z,3.43
2023-02-17T03:01:05.226Z,3.44
2023-02-17T03:03:42.657Z,3.47
2023-02-17T03:06:28.991Z,3.48
2023-02-17T03:09:06.687Z,3.50
2023-02-17T03:11:34.304Z,3.51
2023-02-17T03:14:23.719Z,3.52
2023-02-17T03:17:11.925Z,3.53
2023-02-17T03:19:42.634Z,3.55
2023-02-17T03:22:16.651Z,3.58
2023-02-17T03:24:47.726Z,3.57
2023-02-17T03:27:35.738Z,3.56
2023-02-17T03:30:03.520Z,3.54
2023-02-17T03:32:33.845Z,3.55
2023-02-17T03:35:01.746Z,3.56
2023-02-17T03:37:32.380Z,3.56
2023-02-17T03:39:59.636Z,3.58
2023-02-17T03:42:27.498Z,3.59
2023-02-17T03:44:54.765Z,3.59
2023-02-17T03:47:21.905Z,3.60
2023-02-17T03:49:49.581Z,3.59
2023-02-17T03:52:16.677Z,3.60
2023-02-17T03:54:44.067Z,3.60
2023-02-17T03:57:11.732Z,3.61
2023-02-17T03:59:41.385Z,3.61
2023-02-17T04:02:11.766Z,3.62
2023-02-17T04:04:39.497Z,3.63
2023-02-17T04:07:06.855Z,3.63
2023-02-17T04:09:34.237Z,3.64
2023-02-17T04:12:04.865Z,3.63
2023-02-17T04:14:52.389Z,3.63
2023-02-17T04:17:20.107Z,3.63
2023-02-17T04:19:47.261Z,3.63
2023-02-17T04:22:16.380Z,3.63
2023-02-17T04:24:57.743Z,3.63
2023-02-17T04:27:25.708Z,3.63
2023-02-17T04:29:55.878Z,3.64
2023-02-17T04:32:23.317Z,3.66
2023-02-17T04:34:50.758Z,3.68
2023-02-17T04:37:28.162Z,3.69
2023-02-17T04:39:58.315Z,3.70
2023-02-17T04:42:25.575Z,3.72
2023-02-17T04:44:53.175Z,3.74
2023-02-17T04:47:20.734Z,3.76
2023-02-17T04:49:51.336Z,3.77
2023-02-17T04:52:21.386Z,3.77
2023-02-17T04:54:48.936Z,3.78
2023-02-17T04:57:16.174Z,3.79
2023-02-17T04:59:53.565Z,3.80
2023-02-17T05:02:20.795Z,3.82
2023-02-17T05:04:52.465Z,3.83
2023-02-17T05:07:31.053Z,3.84
2023-02-17T05:10:00.827Z,3.86
2023-02-17T05:12:27.884Z,3.86
2023-02-17T05:14:58.479Z,3.87
2023-02-17T05:17:25.632Z,3.88
2023-02-17T05:19:52.769Z,3.88
2023-02-17T05:22:20.104Z,3.90
2023-02-17T05:24:47.439Z,3.90
2023-02-17T05:27:14.654Z,3.90
2023-02-17T05:29:42.015Z,3.91
2023-02-17T05:32:09.494Z,3.91
2023-02-17T05:34:39.045Z,3.91
2023-02-17T05:37:07.249Z,3.91
2023-02-17T05:39:34.664Z,3.90
2023-02-17T05:42:05.136Z,3.92
2023-02-17T05:44:32.590Z,3.92
2023-02-17T05:47:00.314Z,3.93
2023-02-17T05:49:27.524Z,3.93
2023-02-17T05:51:57.578Z,3.93
2023-02-17T05:54:25.252Z,3.92
2023-02-17T05:56:52.616Z,3.92
2023-02-17T05:59:24.505Z,3.91
2023-02-17T06:01:51.875Z,3.91
2023-02-17T06:04:19.212Z,3.90
2023-02-17T06:06:46.809Z,3.89
2023-02-17T06:09:14.182Z,3.89
2023-02-17T06:11:41.326Z,3.88
2023-02-17T06:14:12.078Z,3.85
2023-02-17T06:16:39.498Z,3.87
2023-02-17T06:19:07.158Z,3.87
2023-02-17T06:21:34.555Z,3.88
2023-02-17T06:24:02.034Z,3.89
2023-02-17T06:26:29.365Z,3.88
2023-02-17T06:29:17.253Z,3.89
2023-02-17T06:31:44.545Z,3.91
2023-02-17T06:34:11.917Z,3.93
2023-02-17T06:36:39.449Z,3.95
2023-02-17T06:39:06.954Z,3.97
2023-02-17T06:41:34.336Z,3.98
2023-02-17T06:44:01.707Z,4.00
2023-02-17T06:46:28.984Z,4.00
2023-02-17T06:48:56.246Z,4.02
2023-02-17T06:51:23.896Z,4.02
2023-02-17T06:53:51.153Z,4.01
2023-02-17T06:56:20.881Z,4.03
2023-02-17T06:58:48.726Z,4.05
2023-02-17T07:01:21.143Z,4.10
2023-02-17T07:03:48.703Z,4.15
2023-02-17T07:06:16.641Z,4.20
2023-02-17T07:08:43.782Z,4.25
2023-02-17T07:11:13.805Z,4.29
2023-02-17T07:13:42.283Z,4.32
2023-02-17T07:16:14.194Z,4.37
2023-02-17T07:18:41.910Z,4.42
2023-02-17T07:21:12.344Z,4.50
2023-02-17T07:23:40.223Z,4.59
2023-02-17T07:26:09.622Z,4.70
2023-02-17T07:28:37.186Z,4.87
2023-02-17T07:31:10.079Z,5.01
2023-02-17T07:33:38.563Z,5.09
2023-02-17T07:36:10.983Z,5.15
2023-02-17T07:38:40.437Z,5.23
2023-02-17T07:41:10.640Z,5.27
2023-02-17T07:43:38.118Z,5.24
2023-02-17T07:46:06.677Z,5.19
2023-02-17T07:48:34.281Z,5.16
2023-02-17T07:51:07.805Z,5.15
2023-02-17T07:53:36.060Z,5.15
2023-02-17T07:56:05.765Z,5.17
2023-02-17T07:58:34.726Z,5.18
2023-02-17T08:01:06.147Z,5.21
2023-02-17T08:03:33.672Z,5.21
2023-02-17T08:06:01.289Z,5.24
2023-02-17T08:08:49.735Z,5.28
2023-02-17T08:11:44.825Z,5.30
2023-02-17T08:14:13.283Z,5.34
2023-02-17T08:16:40.752Z,5.37
2023-02-17T08:19:08.699Z,5.39
2023-02-17T08:21:56.530Z,5.42
2023-02-17T08:24:43.959Z,5.45
2023-02-17T08:27:15.040Z,5.49
2023-02-17T08:29:42.748Z,5.52
2023-02-17T08:32:14.523Z,5.53
2023-02-17T08:34:51.272Z,5.56
2023-02-17T08:37:18.701Z,5.59
2023-02-17T08:39:45.791Z,5.65
2023-02-17T08:42:12.971Z,5.68
2023-02-17T08:45:00.905Z,5.74
2023-02-17T08:47:28.233Z,5.78
2023-02-17T08:49:56.270Z,5.86
2023-02-17T08:52:23.636Z,5.94
2023-02-17T08:54:52.810Z,5.99
2023-02-17T08:57:21.704Z,6.04
2023-02-17T08:59:49.577Z,6.07
2023-02-17T09:02:17.850Z,6.09
2023-02-17T09:04:54.893Z,6.11
2023-02-17T09:07:22.292Z,6.15
2023-02-17T09:09:49.851Z,6.20
2023-02-17T09:12:36.561Z,6.20
2023-02-17T09:15:04.347Z,6.16
2023-02-17T09:17:31.812Z,6.14
2023-02-17T09:19:59.564Z,6.14
2023-02-17T09:22:32.110Z,6.13
2023-02-17T09:25:05.681Z,6.11
2023-02-17T09:27:33.457Z,6.08
2023-02-17T09:30:02.440Z,6.06
2023-02-17T09:32:33.204Z,6.05
2023-02-17T09:35:06.210Z,6.03
2023-02-17T09:37:34.368Z,6.01
2023-02-17T09:40:01.841Z,5.98
2023-02-17T09:42:34.764Z,5.95
2023-02-17T09:45:08.178Z,5.92
2023-02-17T09:47:43.404Z,5.88
2023-02-17T09:50:14.914Z,5.86
2023-02-17T09:52:52.753Z,5.87
2023-02-17T09:55:25.326Z,5.90
2023-02-17T09:57:57.839Z,5.92
2023-02-17T10:00:34.020Z,5.91
2023-02-17T10:03:07.763Z,5.91
2023-02-17T10:05:41.359Z,5.91
2023-02-17T10:08:14.198Z,5.89
2023-02-17T10:10:49.219Z,5.87
2023-02-17T10:13:19.215Z,5.84
2023-02-17T10:15:50.845Z,5.80
2023-02-17T10:18:21.211Z,5.76
2023-02-17T10:20:53.741Z,5.74
2023-02-17T10:23:23.396Z,5.71
2023-02-17T10:26:07.661Z,5.69
2023-02-17T10:28:48.600Z,5.69
2023-02-17T10:31:28.218Z,5.68
2023-02-17T10:34:03.036Z,5.68
2023-02-17T10:36:39.012Z,5.69
2023-02-17T10:39:14.740Z,5.69
2023-02-17T10:41:47.111Z,5.69
2023-02-17T10:44:21.152Z,5.71
2023-02-17T10:46:49.718Z,5.71
2023-02-17T10:49:26.465Z,5.69
2023-02-17T10:51:54.149Z,5.70
2023-02-17T10:54:31.504Z,5.73
2023-02-17T10:57:05.998Z,5.74
2023-02-17T10:59:38.956Z,5.78
2023-02-17T11:02:19.452Z,5.83
2023-02-17T11:04:49.213Z,5.89
2023-02-17T11:07:19.996Z,5.93
2023-02-17T11:09:52.367Z,5.94
2023-02-17T11:12:25.836Z,5.93
2023-02-17T11:14:55.752Z,5.92
2023-02-17T11:17:29.708Z,5.91
2023-02-17T11:20:04.389Z,5.90
2023-02-17T11:22:38.491Z,5.89
2023-02-17T11:25:09.125Z,5.89
2023-02-17T11:27:36.386Z,5.89
2023-02-17T11:30:19.841Z,5.90
2023-02-17T11:32:47.738Z,5.88
2023-02-17T11:35:27.829Z,5.83
2023-02-17T11:38:02.563Z,5.82
2023-02-17T11:40:32.424Z,5.84
2023-02-17T11:43:04.474Z,5.86
2023-02-17T11:45:40.302Z,5.86
2023-02-17T11:48:27.047Z,5.88
2023-02-17T11:51:01.561Z,5.91
2023-02-17T11:53:48.084Z,5.91
2023-02-17T11:56:20.027Z,5.92
2023-02-17T11:59:04.645Z,5.94
2023-02-17T12:01:47.800Z,5.95
2023-02-17T12:04:30.271Z,5.91
2023-02-17T12:07:28.282Z,5.91
2023-02-17T12:09:58.533Z,5.91
2023-02-17T12:12:32.930Z,5.91
2023-02-17T12:15:10.192Z,5.93
2023-02-17T12:17:47.948Z,5.94
2023-02-17T12:20:38.590Z,5.95
2023-02-17T12:23:20.903Z,5.96
2023-02-17T12:25:53.416Z,5.99
2023-02-17T12:28:41.413Z,6.02
2023-02-17T12:31:20.828Z,6.02
2023-02-17T12:33:58.502Z,6.02
2023-02-17T12:36:30.428Z,6.03
2023-02-17T12:39:01.702Z,6.02
2023-02-17T12:41:33.369Z,6.03
2023-02-17T12:44:04.700Z,6.04
2023-02-17T12:46:38.388Z,6.05
2023-02-17T12:49:12.692Z,6.07
2023-02-17T12:51:43.856Z,6.08
2023-02-17T12:54:19.934Z,6.10
2023-02-17T12:56:55.758Z,6.12
2023-02-17T12:59:28.064Z,6.13
2023-02-17T13:02:02.785Z,6.14
2023-02-17T13:04:33.776Z,6.15
2023-02-17T13:07:15.466Z,6.17
2023-02-17T13:09:48.200Z,6.16
2023-02-17T13:12:34.098Z,6.16
2023-02-17T13:15:33.798Z,6.14
2023-02-17T13:18:04.301Z,6.16
2023-02-17T13:20:52.428Z,6.18
2023-02-17T13:23:37.805Z,6.19
2023-02-17T13:26:32.373Z,6.21
2023-02-17T13:29:24.476Z,6.21
2023-02-17T13:31:55.440Z,6.22
2023-02-17T13:34:33.264Z,6.23
2023-02-17T13:37:03.433Z,6.24
2023-02-17T13:39:40.574Z,6.26
2023-02-17T13:42:38.485Z,6.25
2023-02-17T13:45:15.339Z,6.25
2023-02-17T13:47:44.049Z,6.24
2023-02-17T13:50:33.176Z,6.24
2023-02-17T13:53:00.640Z,6.22
2023-02-17T13:55:28.452Z,6.23
2023-02-17T13:57:57.976Z,6.21
2023-02-17T14:00:31.311Z,6.20
2023-02-17T14:03:00.714Z,6.19
2023-02-17T14:05:37.918Z,6.19
2023-02-17T14:08:05.758Z,6.19
2023-02-17T14:10:33.694Z,6.20
2023-02-17T14:13:01.959Z,6.20
2023-02-17T14:15:31.110Z,6.22
2023-02-17T14:17:58.320Z,6.23
2023-02-17T14:20:31.416Z,6.24
2023-02-17T14:23:06.096Z,6.24
2023-02-17T14:25:36.659Z,6.25
2023-02-17T14:28:04.395Z,6.24
2023-02-17T14:30:34.612Z,6.23
2023-02-17T14:33:23.852Z,6.22
2023-02-17T14:35:56.143Z,6.22
2023-02-17T14:38:26.510Z,6.21
2023-02-17T14:40:56.102Z,6.19
2023-02-17T14:43:26.443Z,6.19
2023-02-17T14:45:57.376Z,6.18
2023-02-17T14:48:27.389Z,6.18
2023-02-17T14:50:59.050Z,6.17
2023-02-17T14:53:29.769Z,6.16
2023-02-17T14:56:02.403Z,6.16
2023-02-17T14:58:30.430Z,6.16
2023-02-17T15:01:07.651Z,6.16
2023-02-17T15:03:34.794Z,6.17
2023-02-17T15:06:02.810Z,6.18
2023-02-17T15:08:34.701Z,6.18
2023-02-17T15:11:29.008Z,6.19
2023-02-17T15:13:57.456Z,6.19
2023-02-17T15:16:25.184Z,6.20
2023-02-17T15:18:52.322Z,6.20
2023-02-17T15:21:29.107Z,6.20
2023-02-17T15:24:15.131Z,6.21
2023-02-17T15:26:54.621Z,6.23
2023-02-17T15:29:23.670Z,6.23
2023-02-17T15:31:53.353Z,6.23
2023-02-17T15:34:23.488Z,6.22
2023-02-17T15:36:50.584Z,6.23
2023-02-17T15:39:19.576Z,6.23
2023-02-17T15:41:48.344Z,6.23
2023-02-17T15:44:20.110Z,6.23
2023-02-17T15:46:49.265Z,6.22
2023-02-17T15:49:16.733Z,6.22
2023-02-17T15:51:44.070Z,6.22
2023-02-17T15:54:11.530Z,6.21
2023-02-17T15:56:45.321Z,6.20
2023-02-17T15:59:17.530Z,6.20
2023-02-17T16:01:45.274Z,6.20
2023-02-17T16:04:14.742Z,6.19
2023-02-17T16:06:42.360Z,6.19
2023-02-17T16:09:10.117Z,6.20
2023-02-17T16:11:52.878Z,6.20
2023-02-17T16:14:26.440Z,6.19
2023-02-17T16:16:54.075Z,6.19
2023-02-17T16:19:41.622Z,6.20
2023-02-17T16:22:08.904Z,6.20
2023-02-17T16:24:38.265Z,6.20
2023-02-17T16:27:08.345Z,6.20
2023-02-17T16:29:35.967Z,6.20
2023-02-17T16:32:11.704Z,6.20
2023-02-17T16:34:43.094Z,6.20
2023-02-17T16:37:17.090Z,6.21
2023-02-17T16:39:45.414Z,6.21
2023-02-17T16:42:15.726Z,6.22
2023-02-17T16:44:44.311Z,6.23
2023-02-17T16:47:25.630Z,6.24
2023-02-17T16:49:53.453Z,6.25
2023-02-17T16:52:27.769Z,6.26
2023-02-17T16:54:55.558Z,6.27
2023-02-17T16:57:23.550Z,6.28
2023-02-17T17:00:00.170Z,6.28
2023-02-17T17:02:30.028Z,6.28
2023-02-17T17:05:08.126Z,6.29
2023-02-17T17:07:35.435Z,6.29
2023-02-17T17:10:16.302Z,6.30
2023-02-17T17:12:45.509Z,6.29
2023-02-17T17:15:16.980Z,6.30
2023-02-17T17:17:47.479Z,6.30
2023-02-17T17:20:19.039Z,6.30
2023-02-17T17:22:49.523Z,6.30
2023-02-17T17:25:17.263Z,6.30
2023-02-17T17:27:47.090Z,6.31
2023-02-17T17:30:21.193Z,6.32
2023-02-17T17:32:48.917Z,6.33
2023-02-17T17:35:16.583Z,6.34
2023-02-17T17:37:44.516Z,6.35
2023-02-17T17:40:19.176Z,6.37
2023-02-17T17:42:46.837Z,6.38
2023-02-17T17:45:15.210Z,6.38
2023-02-17T17:47:42.957Z,6.37
2023-02-17T17:50:14.117Z,6.38
2023-02-17T17:52:41.476Z,6.41
2023-02-17T17:55:09.214Z,6.42
2023-02-17T17:57:36.578Z,6.44
2023-02-17T18:00:06.146Z,6.46
2023-02-17T18:02:42.435Z,6.48
2023-02-17T18:05:11.075Z,6.48
2023-02-17T18:07:39.714Z,6.51
2023-02-17T18:10:11.106Z,6.53
2023-02-17T18:12:41.475Z,6.54
2023-02-17T18:15:10.874Z,6.55
2023-02-17T18:17:41.826Z,6.55
2023-02-17T18:20:12.927Z,6.58
2023-02-17T18:22:40.431Z,6.60
2023-02-17T18:25:08.839Z,6.62
2023-02-17T18:27:42.765Z,6.64
2023-02-17T18:30:12.770Z,6.64
2023-02-17T18:32:40.075Z,6.64
2023-02-17T18:35:10.848Z,6.65
2023-02-17T18:37:38.135Z,6.67
2023-02-17T18:40:06.469Z,6.69
2023-02-17T18:42:34.191Z,6.70
2023-02-17T18:45:07.959Z,6.72
2023-02-17T18:47:40.874Z,6.74
2023-02-17T18:50:09.905Z,6.76
2023-02-17T18:52:41.825Z,6.78
2023-02-17T18:55:22.383Z,6.80
2023-02-17T18:57:49.749Z,6.83
2023-02-17T19:00:20.282Z,6.85
2023-02-17T19:02:58.021Z,6.87
2023-02-17T19:05:30.397Z,6.89
2023-02-17T19:07:58.708Z,6.91
2023-02-17T19:10:26.042Z,6.94
2023-02-17T19:12:54.113Z,6.95
2023-02-17T19:15:21.915Z,6.99
2023-02-17T19:17:51.095Z,7.00
2023-02-17T19:20:18.899Z,7.02
2023-02-17T19:22:46.469Z,7.04
2023-02-17T19:25:13.602Z,7.05
2023-02-17T19:27:51.982Z,7.08
2023-02-17T19:30:19.876Z,7.11
2023-02-17T19:32:47.110Z,7.13
2023-02-17T19:35:14.866Z,7.15
2023-02-17T19:37:42.040Z,7.16
2023-02-17T19:40:17.013Z,7.18
2023-02-17T19:42:44.115Z,7.21
2023-02-17T19:45:20.655Z,7.23
2023-02-17T19:47:50.151Z,7.26
2023-02-17T19:50:19.604Z,7.28
2023-02-17T19:52:57.944Z,7.33
2023-02-17T19:55:26.450Z,7.35
2023-02-17T19:57:59.415Z,7.40
2023-02-17T20:00:45.362Z,7.44
2023-02-17T20:03:12.834Z,7.47
2023-02-17T20:05:42.689Z,7.50
2023-02-17T20:08:14.805Z,7.55
2023-02-17T20:10:43.402Z,7.59
2023-02-17T20:13:10.708Z,7.63
2023-02-17T20:15:38.369Z,7.68
2023-02-17T20:18:05.726Z,7.71
2023-02-17T20:20:32.950Z,7.75
2023-02-17T20:23:00.323Z,7.79
2023-02-17T20:25:27.527Z,7.82
2023-02-17T20:27:55.911Z,7.86
2023-02-17T20:30:24.977Z,7.90
2023-02-17T20:32:52.116Z,7.94
2023-02-17T20:35:19.570Z,7.97
2023-02-17T20:37:47.025Z,7.99
2023-02-17T20:40:16.877Z,8.02
2023-02-17T20:42:43.941Z,8.05
2023-02-17T20:45:11.610Z,8.08
2023-02-17T20:47:38.851Z,8.13
2023-02-17T20:50:09.358Z,8.15
2023-02-17T20:52:39.722Z,8.19
2023-02-17T20:55:07.805Z,8.22
2023-02-17T20:57:34.986Z,8.25
2023-02-17T21:00:02.606Z,8.27
2023-02-17T21:02:29.927Z,8.29
2023-02-17T21:05:17.638Z,8.32
2023-02-17T21:07:44.905Z,8.34
2023-02-17T21:10:19.716Z,8.35
2023-02-17T21:12:47.761Z,8.36
2023-02-17T21:15:15.366Z,8.37
2023-02-17T21:17:42.938Z,8.38
2023-02-17T21:20:15.296Z,8.40
2023-02-17T21:22:42.650Z,8.41
2023-02-17T21:25:13.065Z,8.43
2023-02-17T21:27:40.247Z,8.45
2023-02-17T21:30:10.558Z,8.48
2023-02-17T21:32:37.944Z,8.50
2023-02-17T21:35:05.434Z,8.51
2023-02-17T21:37:43.915Z,8.53
2023-02-17T21:40:13.654Z,8.54
2023-02-17T21:43:03.854Z,8.56
2023-02-17T21:45:32.462Z,8.56
2023-02-17T21:47:59.792Z,8.55
2023-02-17T21:50:26.863Z,8.55
2023-02-17T21:52:53.980Z,8.54
2023-02-17T21:55:24.221Z,8.54
2023-02-17T21:57:51.992Z,8.53
2023-02-17T22:00:22.045Z,8.52
2023-02-17T22:02:49.453Z,8.52
2023-02-17T22:05:17.307Z,8.51
2023-02-17T22:07:44.337Z,8.48
2023-02-17T22:10:12.509Z,8.44
2023-02-17T22:12:39.834Z,8.41
2023-02-17T22:15:07.735Z,8.36
2023-02-17T22:17:37.395Z,8.29
2023-02-17T22:20:05.944Z,8.24
2023-02-17T22:22:40.925Z,8.19
2023-02-17T22:25:08.876Z,8.14
2023-02-17T22:27:36.691Z,8.09
2023-02-17T22:30:03.895Z,8.03
2023-02-17T22:32:31.478Z,7.97
2023-02-17T22:34:58.896Z,7.93
2023-02-17T22:37:26.824Z,7.88
2023-02-17T22:39:56.882Z,7.84
2023-02-17T22:42:24.948Z,7.80
2023-02-17T22:44:53.237Z,7.78
2023-02-17T22:47:20.594Z,7.76
2023-02-17T22:49:48.004Z,7.74
2023-02-17T22:52:15.595Z,7.72
2023-02-17T22:54:44.406Z,7.71
2023-02-17T22:57:12.162Z,7.70
2023-02-17T22:59:42.219Z,7.67
2023-02-17T23:02:12.651Z,7.63
2023-02-17T23:04:39.895Z,7.60
2023-02-17T23:07:07.549Z,7.58
2023-02-17T23:09:35.079Z,7.56
2023-02-17T23:12:02.230Z,7.53
2023-02-17T23:14:36.343Z,7.52
2023-02-17T23:17:05.973Z,7.51
2023-02-17T23:19:34.227Z,7.49
2023-02-17T23:22:06.746Z,7.48
2023-02-17T23:24:34.877Z,7.46
2023-02-17T23:27:03.419Z,7.43
2023-02-17T23:29:31.642Z,7.42
2023-02-17T23:32:00.705Z,7.39
2023-02-17T23:34:28.912Z,7.38
2023-02-17T23:36:56.145Z,7.35
2023-02-17T23:39:23.963Z,7.34
2023-02-17T23:41:53.585Z,7.32
2023-02-17T23:44:24.085Z,7.32
2023-02-17T23:46:51.505Z,7.31
2023-02-17T23:49:19.348Z,7.30
2023-02-17T23:51:48.097Z,7.27
2023-02-17T23:54:18.228Z,7.26
2023-02-17T23:56:45.690Z,7.25
2023-02-17T23:59:23.015Z,7.22
